Station Historical Data
Daily Summary for February 16, 2017 Units:  English    Metric   Both
Next Day »
Daily Weekly Monthly Yearly Custom
  High: Low: Average:
Temperature: 57.0 °F 44.4 °F 48.7 °F
Dew Point: 47.2 °F 32.5 °F 42.6 °F
Humidity: 94% 40% 82%
Wind Speed: 29.0mph 0.0mph 6.9mph
Wind Gust: 41.0mph - -
Wind- - South
Pressure: 29.99 in 29.80 in -
Precipitation: 0.62 in    
Historical Graphs
 
 
Tabular Data for February 16, 2017
Time Temperature Dew Point Pressure Wind Wind Speed Wind Gust Humidity Rainfall Rate (Hourly) solar Conditions
00:02 54.5 °F 39.6 °F 29.99 in SSE 7.0 mph 7.0 mph 57% 0.00 in 0.00 W/m2
00:07 54.3 °F 38.5 °F 29.98 in Calm   1.0 mph 55% 0.00 in 0.00 W/m2
00:12 54.1 °F 37.4 °F 29.99 in SSE 9.0 mph 11.0 mph 53% 0.00 in 0.00 W/m2
00:17 54.0 °F 37.3 °F 29.99 in SSE 9.0 mph 11.0 mph 53% 0.00 in 0.00 W/m2
00:22 54.0 °F 37.3 °F 29.99 in SSE 6.0 mph 13.0 mph 53% 0.00 in 0.00 W/m2
00:27 54.0 °F 37.8 °F 29.98 in Calm   10.0 mph 54% 0.00 in 0.00 W/m2
00:32 53.9 °F 37.7 °F 29.98 in SSE 6.0 mph 11.0 mph 54% 0.00 in 0.00 W/m2
00:37 53.9 °F 37.2 °F 29.96 in SSE 5.0 mph 12.0 mph 53% 0.00 in 0.00 W/m2
00:42 54.0 °F 37.3 °F 29.96 in SSE 8.0 mph 14.0 mph 53% 0.00 in 0.00 W/m2
00:47 54.0 °F 37.3 °F 29.96 in South 6.0 mph 15.0 mph 53% 0.00 in 0.00 W/m2
00:52 54.0 °F 36.3 °F 29.96 in SSE 8.0 mph 20.0 mph 51% 0.00 in 0.00 W/m2
00:57 54.0 °F 36.3 °F 29.96 in SSE 9.0 mph 17.0 mph 51% 0.00 in 0.00 W/m2
01:02 54.1 °F 36.9 °F 29.96 in SSE 15.0 mph 17.0 mph 52% 0.00 in 0.00 W/m2
01:07 54.1 °F 36.9 °F 29.95 in SE 7.0 mph 14.0 mph 52% 0.00 in 0.00 W/m2
01:12 54.1 °F 35.9 °F 29.93 in South 9.0 mph 16.0 mph 50% 0.00 in 0.00 W/m2
01:17 54.2 °F 36.0 °F 29.92 in South 14.0 mph 21.0 mph 50% 0.00 in 0.00 W/m2
01:22 54.2 °F 35.5 °F 29.92 in SSE 12.0 mph 17.0 mph 49% 0.00 in 0.00 W/m2
01:27 54.4 °F 36.7 °F 29.93 in SSE 9.0 mph 21.0 mph 51% 0.00 in 0.00 W/m2
01:32 54.4 °F 35.1 °F 29.92 in SSE 13.0 mph 19.0 mph 48% 0.00 in 0.00 W/m2
01:37 54.5 °F 35.2 °F 29.91 in SE 15.0 mph 22.0 mph 48% 0.00 in 0.00 W/m2
01:43 54.6 °F 34.2 °F 29.90 in South 29.0 mph 29.0 mph 46% 0.00 in 0.00 W/m2
01:48 54.8 °F 35.0 °F 29.90 in SSE 16.0 mph 23.0 mph 47% 0.00 in 0.00 W/m2
01:53 55.0 °F 34.6 °F 29.90 in SE 22.0 mph 27.0 mph 46% 0.00 in 0.00 W/m2
01:57 55.2 °F 34.8 °F 29.89 in South 15.0 mph 19.0 mph 46% 0.00 in 0.00 W/m2
02:03 55.4 °F 34.4 °F 29.89 in SE 7.0 mph 21.0 mph 45% 0.00 in 0.00 W/m2
02:08 55.5 °F 34.0 °F 29.88 in South 9.0 mph 26.0 mph 44% 0.00 in 0.00 W/m2
02:13 55.7 °F 34.7 °F 29.88 in South 19.0 mph 21.0 mph 45% 0.00 in 0.00 W/m2
02:18 55.8 °F 33.7 °F 29.87 in South 7.0 mph 20.0 mph 43% 0.00 in 0.00 W/m2
02:23 55.9 °F 33.8 °F 29.88 in South 10.0 mph 20.0 mph 43% 0.00 in 0.00 W/m2
02:28 56.0 °F 33.8 °F 29.88 in SSW 19.0 mph 28.0 mph 43% 0.00 in 0.00 W/m2
02:33 56.1 °F 33.3 °F 29.87 in SE 13.0 mph 21.0 mph 42% 0.00 in 0.00 W/m2
02:38 56.2 °F 34.0 °F 29.86 in SSE 18.0 mph 22.0 mph 43% 0.00 in 0.00 W/m2
02:43 56.2 °F 33.4 °F 29.86 in SE 12.0 mph 20.0 mph 42% 0.00 in 0.00 W/m2
02:48 56.2 °F 32.8 °F 29.86 in SSW 6.0 mph 33.0 mph 41% 0.00 in 0.00 W/m2
02:53 56.3 °F 33.5 °F 29.85 in SE 18.0 mph 24.0 mph 42% 0.00 in 0.00 W/m2
02:58 56.3 °F 33.5 °F 29.85 in ESE 5.0 mph 26.0 mph 42% 0.00 in 0.00 W/m2
03:03 56.4 °F 33.0 °F 29.84 in South 19.0 mph 26.0 mph 41% 0.00 in 0.00 W/m2
03:08 56.5 °F 32.5 °F 29.84 in SSW 12.0 mph 25.0 mph 40% 0.00 in 0.00 W/m2
03:13 56.6 °F 32.6 °F 29.84 in South 21.0 mph 28.0 mph 40% 0.00 in 0.00 W/m2
03:18 56.8 °F 32.8 °F 29.85 in SSE 15.0 mph 28.0 mph 40% 0.00 in 0.00 W/m2
03:23 56.9 °F 32.8 °F 29.84 in South 10.0 mph 16.0 mph 40% 0.00 in 0.00 W/m2
03:28 57.0 °F 32.9 °F 29.84 in SSE 10.0 mph 20.0 mph 40% 0.00 in 0.00 W/m2
03:33 57.0 °F 32.9 °F 29.83 in SSW 22.0 mph 24.0 mph 40% 0.00 in 0.00 W/m2
03:38 56.9 °F 33.5 °F 29.82 in SSE 9.0 mph 23.0 mph 41% 0.00 in 0.00 W/m2
03:43 56.9 °F 32.8 °F 29.83 in South 13.0 mph 23.0 mph 40% 0.00 in 0.00 W/m2
03:48 56.9 °F 33.5 °F 29.83 in SSE 9.0 mph 14.0 mph 41% 0.00 in 0.00 W/m2
03:53 56.9 °F 33.5 °F 29.84 in SSE 15.0 mph 20.0 mph 41% 0.00 in 0.00 W/m2
03:58 56.8 °F 34.0 °F 29.85 in South 15.0 mph 24.0 mph 42% 0.00 in 0.00 W/m2
04:03 56.7 °F 34.5 °F 29.83 in South 23.0 mph 30.0 mph 43% 0.00 in 0.00 W/m2
04:08 56.6 °F 33.2 °F 29.84 in SSE 13.0 mph 30.0 mph 41% 0.00 in 0.00 W/m2
04:13 56.6 °F 33.2 °F 29.84 in South 21.0 mph 41.0 mph 41% 0.00 in 0.00 W/m2
04:18 56.8 °F 34.0 °F 29.84 in South 14.0 mph 24.0 mph 42% 0.00 in 0.00 W/m2
04:23 56.9 °F 34.1 °F 29.83 in South 16.0 mph 27.0 mph 42% 0.00 in 0.00 W/m2
04:28 56.9 °F 34.1 °F 29.86 in SSW 21.0 mph 27.0 mph 42% 0.00 in 0.00 W/m2
04:33 56.9 °F 33.5 °F 29.87 in WSW 5.0 mph 24.0 mph 41% 0.00 in 0.00 W/m2
04:38 56.9 °F 35.2 °F 29.88 in South 10.0 mph 25.0 mph 44% 0.00 in 0.00 W/m2
04:43 56.7 °F 34.5 °F 29.89 in SSW 15.0 mph 32.0 mph 43% 0.00 in 0.00 W/m2
04:48 56.3 °F 39.9 °F 29.89 in SSW 6.0 mph 41.0 mph 54% 0.00 in 0.00 W/m2
04:53 54.9 °F 42.1 °F 29.88 in South 19.0 mph 22.0 mph 62% 0.00 in 0.00 W/m2
04:58 53.6 °F 42.1 °F 29.87 in South 6.0 mph 19.0 mph 65% 0.00 in 0.00 W/m2
05:03 52.4 °F 41.8 °F 29.86 in SSE 14.0 mph 29.0 mph 67% 0.00 in 0.00 W/m2
05:08 51.6 °F 41.0 °F 29.88 in SSE 16.0 mph 24.0 mph 67% 0.00 in 0.00 W/m2
05:13 51.1 °F 42.4 °F 29.88 in SSW 13.0 mph 25.0 mph 72% 0.00 in 0.00 W/m2
05:18 50.6 °F 41.6 °F 29.89 in South 6.0 mph 31.0 mph 71% 0.00 in 0.00 W/m2
05:24 50.3 °F 42.0 °F 29.89 in SSW 18.0 mph 24.0 mph 73% 0.00 in 0.00 W/m2
05:29 49.9 °F 42.7 °F 29.89 in South 11.0 mph 22.0 mph 76% 0.00 in 0.00 W/m2
05:34 49.5 °F 43.3 °F 29.89 in South 9.0 mph 24.0 mph 79% 0.13 in 0.00 W/m2
05:39 48.9 °F 43.3 °F 29.89 in SSW 15.0 mph 20.0 mph 81% 0.09 in 0.00 W/m2
05:44 48.4 °F 43.2 °F 29.89 in South 6.0 mph 12.0 mph 82% 0.05 in 0.00 W/m2
05:49 48.1 °F 43.2 °F 29.89 in SSE 12.0 mph 29.0 mph 83% 0.05 in 0.00 W/m2
05:54 47.7 °F 43.4 °F 29.88 in South 11.0 mph 21.0 mph 85% 0.08 in 0.00 W/m2
05:59 47.4 °F 43.4 °F 29.87 in South 13.0 mph 16.0 mph 86% 0.09 in 0.00 W/m2
06:04 47.1 °F 43.4 °F 29.87 in SE 5.0 mph 20.0 mph 87% 0.09 in 0.00 W/m2
06:09 46.9 °F 43.5 °F 29.88 in SE 11.0 mph 25.0 mph 88% 0.06 in 0.00 W/m2
06:14 46.6 °F 43.2 °F 29.88 in South 7.0 mph 23.0 mph 88% 0.06 in 0.00 W/m2
06:19 46.5 °F 43.1 °F 29.89 in SSE 16.0 mph 24.0 mph 88% 0.07 in 0.00 W/m2
06:24 46.4 °F 43.3 °F 29.90 in South 12.0 mph 24.0 mph 89% 0.12 in 0.00 W/m2
06:29 46.3 °F 43.5 °F 29.90 in SSE 11.0 mph 23.0 mph 90% 0.25 in 0.00 W/m2
06:34 46.2 °F 43.4 °F 29.90 in SSE 5.0 mph 25.0 mph 90% 0.30 in 0.00 W/m2
06:39 46.1 °F 43.6 °F 29.90 in SSE 7.0 mph 24.0 mph 91% 0.37 in 0.00 W/m2
06:44 46.0 °F 43.5 °F 29.91 in SSE 12.0 mph 25.0 mph 91% 0.34 in 0.00 W/m2
06:49 45.8 °F 43.3 °F 29.91 in SSW 11.0 mph 30.0 mph 91% 0.17 in 0.00 W/m2
06:54 45.6 °F 43.4 °F 29.91 in SSW 10.0 mph 25.0 mph 92% 0.17 in 0.00 W/m2
06:59 45.5 °F 43.3 °F 29.92 in South 16.0 mph 27.0 mph 92% 0.13 in 0.00 W/m2
07:04 45.3 °F 43.1 °F 29.91 in SSE 18.0 mph 29.0 mph 92% 0.12 in 0.00 W/m2
07:09 45.3 °F 43.1 °F 29.92 in South 19.0 mph 27.0 mph 92% 0.06 in 0.00 W/m2
07:14 45.3 °F 43.4 °F 29.92 in SE 11.0 mph 17.0 mph 93% 0.04 in 0.00 W/m2
07:19 45.2 °F 43.3 °F 29.93 in SE 18.0 mph 21.0 mph 93% 0.04 in 0.00 W/m2
07:24 45.2 °F 43.3 °F 29.93 in South 22.0 mph 26.0 mph 93% 0.04 in 0.00 W/m2
07:29 45.2 °F 43.3 °F 29.93 in South 10.0 mph 22.0 mph 93% 0.00 in 0.00 W/m2
07:34 45.1 °F 43.2 °F 29.93 in SSE 11.0 mph 23.0 mph 93% 0.00 in 0.00 W/m2
07:39 45.0 °F 43.1 °F 29.93 in SSW 17.0 mph 37.0 mph 93% 0.00 in 0.00 W/m2
07:44 44.9 °F 43.0 °F 29.93 in SE 11.0 mph 26.0 mph 93% 0.00 in 5.00 W/m2
07:49 44.7 °F 42.8 °F 29.93 in SE 12.0 mph 23.0 mph 93% 0.00 in 5.00 W/m2
07:54 44.6 °F 42.7 °F 29.93 in South 11.0 mph 22.0 mph 93% 0.07 in 5.00 W/m2
07:59 44.6 °F 42.7 °F 29.93 in South 11.0 mph 26.0 mph 93% 0.07 in 0.00 W/m2
08:04 44.5 °F 42.6 °F 29.93 in SSW 14.0 mph 21.0 mph 93% 0.06 in 0.00 W/m2
08:09 44.5 °F 42.6 °F 29.93 in SE 14.0 mph 23.0 mph 93% 0.06 in 5.00 W/m2
08:14 44.5 °F 42.6 °F 29.93 in South 14.0 mph 25.0 mph 93% 0.09 in 7.00 W/m2
08:19 44.5 °F 42.6 °F 29.93 in South 6.0 mph 20.0 mph 93% 0.07 in 5.00 W/m2
08:25 44.4 °F 42.5 °F 29.93 in South 12.0 mph 20.0 mph 93% 0.06 in 0.00 W/m2
08:30 44.4 °F 42.5 °F 29.93 in South 9.0 mph 15.0 mph 93% 0.09 in 0.00 W/m2
08:35 44.5 °F 42.6 °F 29.92 in SSE 10.0 mph 18.0 mph 93% 0.08 in 14.00 W/m2
08:40 44.5 °F 42.6 °F 29.93 in SSE 15.0 mph 17.0 mph 93% 0.05 in 19.00 W/m2
08:45 44.5 °F 42.6 °F 29.93 in SSW 9.0 mph 21.0 mph 93% 0.00 in 21.00 W/m2
08:50 44.7 °F 42.8 °F 29.92 in SSE 9.0 mph 26.0 mph 93% 0.00 in 63.00 W/m2
08:55 44.8 °F 42.9 °F 29.92 in South 15.0 mph 17.0 mph 93% 0.00 in 14.00 W/m2
09:00 44.9 °F 43.0 °F 29.92 in SSE 11.0 mph 16.0 mph 93% 0.05 in 62.00 W/m2
09:05 45.0 °F 43.1 °F 29.92 in SSE 8.0 mph 25.0 mph 93% 0.05 in 30.00 W/m2
09:10 45.2 °F 43.3 °F 29.93 in SSE 18.0 mph 25.0 mph 93% 0.05 in 32.00 W/m2
09:15 45.2 °F 43.3 °F 29.94 in South 8.0 mph 24.0 mph 93% 0.23 in 35.00 W/m2
09:20 45.4 °F 43.5 °F 29.94 in South 8.0 mph 26.0 mph 93% 0.09 in 37.00 W/m2
09:25 45.5 °F 43.6 °F 29.94 in SE 13.0 mph 24.0 mph 93% 0.05 in 69.00 W/m2
09:30 45.6 °F 43.7 °F 29.94 in SSE 12.0 mph 23.0 mph 93% 0.05 in 39.00 W/m2
09:35 45.7 °F 43.8 °F 29.95 in SW 7.0 mph 19.0 mph 93% 0.05 in 37.00 W/m2
09:40 45.8 °F 43.9 °F 29.96 in South 16.0 mph 22.0 mph 93% 0.05 in 70.00 W/m2
09:45 45.9 °F 44.0 °F 29.95 in SW 12.0 mph 17.0 mph 93% 0.05 in 76.00 W/m2
09:50 46.0 °F 44.1 °F 29.96 in Calm   21.0 mph 93% 0.05 in 12.00 W/m2
09:55 46.1 °F 44.2 °F 29.96 in Calm   13.0 mph 93% 0.92 in 42.00 W/m2
10:00 46.1 °F 44.2 °F 29.97 in SSW 7.0 mph 17.0 mph 93% 0.20 in 81.00 W/m2
10:06 46.0 °F 44.1 °F 29.97 in SSW 7.0 mph 17.0 mph 93% 0.10 in 19.00 W/m2
10:11 46.1 °F 44.2 °F 29.97 in SSW 14.0 mph 18.0 mph 93% 0.08 in 69.00 W/m2
10:16 46.1 °F 44.2 °F 29.97 in SW 5.0 mph 18.0 mph 93% 0.07 in 83.00 W/m2
10:21 46.1 °F 44.2 °F 29.97 in SW 6.0 mph 19.0 mph 93% 0.05 in 81.00 W/m2
10:26 46.2 °F 44.3 °F 29.97 in SSW 3.0 mph 16.0 mph 93% 0.00 in 79.00 W/m2
10:31 46.2 °F 44.3 °F 29.97 in SW 7.0 mph 20.0 mph 93% 0.00 in 47.00 W/m2
10:36 46.3 °F 44.4 °F 29.98 in South 13.0 mph 20.0 mph 93% 0.00 in 86.00 W/m2
10:41 46.3 °F 44.4 °F 29.98 in SSE 13.0 mph 20.0 mph 93% 0.00 in 118.00 W/m2
10:46 46.4 °F 44.5 °F 29.99 in SE 8.0 mph 10.0 mph 93% 0.00 in 109.00 W/m2
10:51 46.4 °F 44.5 °F 29.98 in South 6.0 mph 7.0 mph 93% 0.00 in 178.00 W/m2
10:56 46.6 °F 44.7 °F 29.99 in South 8.0 mph 10.0 mph 93% 0.00 in 102.00 W/m2
11:01 46.6 °F 44.7 °F 29.99 in SW 11.0 mph 16.0 mph 93% 0.00 in 93.00 W/m2
11:06 46.7 °F 44.8 °F 29.99 in SW 9.0 mph 9.0 mph 93% 0.00 in 134.00 W/m2
11:11 46.8 °F 44.9 °F 29.98 in SSE 10.0 mph 13.0 mph 93% 0.00 in 243.00 W/m2
11:16 46.9 °F 45.0 °F 29.99 in SSW 15.0 mph 16.0 mph 93% 0.00 in 176.00 W/m2
11:21 46.9 °F 45.0 °F 29.98 in South 9.0 mph 15.0 mph 93% 0.00 in 113.00 W/m2
11:26 47.0 °F 45.1 °F 29.99 in SSW 7.0 mph 10.0 mph 93% 0.00 in 109.00 W/m2
11:31 47.0 °F 45.1 °F 29.98 in Calm   8.0 mph 93% 0.00 in 313.00 W/m2
11:36 47.2 °F 45.3 °F 29.98 in SSW 4.0 mph 7.0 mph 93% 0.00 in 432.00 W/m2
11:41 47.4 °F 45.5 °F 29.98 in South 9.0 mph 9.0 mph 93% 0.00 in 155.00 W/m2
11:46 47.6 °F 45.7 °F 29.99 in SSW 7.0 mph 9.0 mph 93% 0.00 in 148.00 W/m2
11:51 47.7 °F 45.8 °F 29.99 in South 7.0 mph 7.0 mph 93% 0.00 in 179.00 W/m2
11:56 47.8 °F 45.9 °F 29.99 in Calm     93% 0.00 in 171.00 W/m2
12:01 48.0 °F 46.1 °F 29.98 in SSW 11.0 mph 11.0 mph 93% 0.00 in 107.00 W/m2
12:06 48.0 °F 46.1 °F 29.98 in South 9.0 mph 11.0 mph 93% 0.00 in 174.00 W/m2
12:11 48.0 °F 46.1 °F 29.98 in SSW 7.0 mph 7.0 mph 93% 0.00 in 100.00 W/m2
12:16 48.0 °F 46.1 °F 29.97 in Calm   10.0 mph 93% 0.00 in 160.00 W/m2
12:21 48.0 °F 46.1 °F 29.97 in South 2.0 mph 8.0 mph 93% 0.00 in 91.00 W/m2
12:26 47.9 °F 46.0 °F 29.97 in South 1.0 mph 7.0 mph 93% 0.00 in 32.00 W/m2
12:31 47.7 °F 45.8 °F 29.96 in Calm   4.0 mph 93% 0.78 in 53.00 W/m2
12:36 47.3 °F 45.7 °F 29.97 in SSW 6.0 mph 10.0 mph 94% 0.91 in 111.00 W/m2
12:42 46.5 °F 44.9 °F 29.96 in South 4.0 mph 8.0 mph 94% 0.12 in 186.00 W/m2
12:47 46.1 °F 44.2 °F 29.96 in South 8.0 mph 10.0 mph 93% 0.06 in 506.00 W/m2
12:52 46.5 °F 44.6 °F 29.96 in SSE 7.0 mph 9.0 mph 93% 0.04 in 403.00 W/m2
12:57 46.9 °F 45.0 °F 29.96 in SSW 3.0 mph 10.0 mph 93% 0.00 in 770.00 W/m2
13:02 47.4 °F 45.5 °F 29.95 in South 8.0 mph 15.0 mph 93% 0.00 in 255.00 W/m2
13:07 47.6 °F 45.7 °F 29.95 in Calm   8.0 mph 93% 0.00 in 726.00 W/m2
13:12 47.8 °F 45.9 °F 29.95 in SSW 13.0 mph 15.0 mph 93% 0.00 in 144.00 W/m2
13:17 48.1 °F 46.2 °F 29.95 in SW 11.0 mph 12.0 mph 93% 0.00 in 81.00 W/m2
13:22 48.0 °F 46.1 °F 29.96 in SSE 16.0 mph 16.0 mph 93% 0.00 in 60.00 W/m2
13:27 47.8 °F 45.9 °F 29.95 in Calm   8.0 mph 93% 0.21 in 76.00 W/m2
13:32 47.3 °F 45.4 °F 29.95 in SSE 8.0 mph 12.0 mph 93% 0.18 in 155.00 W/m2
13:37 47.2 °F 45.6 °F 29.95 in South 5.0 mph 10.0 mph 94% 0.07 in 120.00 W/m2
13:42 47.3 °F 45.4 °F 29.95 in South 6.0 mph 10.0 mph 93% 0.04 in 95.00 W/m2
13:47 47.3 °F 45.4 °F 29.95 in Calm   4.0 mph 93% 0.00 in 118.00 W/m2
13:52 47.5 °F 45.6 °F 29.95 in South 9.0 mph 9.0 mph 93% 0.00 in 179.00 W/m2
13:57 47.7 °F 45.8 °F 29.95 in SSE 7.0 mph 11.0 mph 93% 0.00 in 120.00 W/m2
14:02 47.8 °F 45.9 °F 29.95 in South 9.0 mph 10.0 mph 93% 0.00 in 120.00 W/m2
14:07 47.8 °F 45.9 °F 29.95 in South 10.0 mph 12.0 mph 93% 0.00 in 190.00 W/m2
14:12 47.9 °F 46.0 °F 29.94 in South 17.0 mph 17.0 mph 93% 0.00 in 113.00 W/m2
14:17 47.9 °F 46.0 °F 29.94 in SE 7.0 mph 12.0 mph 93% 0.00 in 148.00 W/m2
14:22 47.9 °F 46.0 °F 29.94 in South 6.0 mph 9.0 mph 93% 0.00 in 132.00 W/m2
14:27 47.8 °F 45.9 °F 29.94 in South 6.0 mph 12.0 mph 93% 0.00 in 239.00 W/m2
14:32 47.9 °F 46.0 °F 29.94 in SSE 9.0 mph 9.0 mph 93% 0.00 in 712.00 W/m2
14:37 48.1 °F 46.2 °F 29.94 in SSE 5.0 mph 11.0 mph 93% 0.00 in 527.00 W/m2
14:42 48.3 °F 46.4 °F 29.95 in South 13.0 mph 15.0 mph 93% 0.00 in 127.00 W/m2
14:47 48.2 °F 46.6 °F 29.94 in SSE 8.0 mph 12.0 mph 94% 0.00 in 246.00 W/m2
14:52 48.2 °F 46.6 °F 29.95 in SSW 11.0 mph 12.0 mph 94% 0.00 in 253.00 W/m2
14:57 48.3 °F 46.7 °F 29.95 in SSW 8.0 mph 13.0 mph 94% 0.00 in 220.00 W/m2
15:02 48.4 °F 46.8 °F 29.95 in South 11.0 mph 16.0 mph 94% 0.00 in 137.00 W/m2
15:07 48.5 °F 46.9 °F 29.94 in South 8.0 mph 19.0 mph 94% 0.00 in 134.00 W/m2
15:12 48.5 °F 46.6 °F 29.95 in Calm   13.0 mph 93% 0.00 in 127.00 W/m2
15:17 48.6 °F 46.7 °F 29.95 in South 8.0 mph 11.0 mph 93% 0.00 in 204.00 W/m2
15:22 48.7 °F 46.8 °F 29.95 in SSE 5.0 mph 7.0 mph 93% 0.00 in 207.00 W/m2
15:27 48.8 °F 46.9 °F 29.94 in SSE 5.0 mph 9.0 mph 93% 0.00 in 575.00 W/m2
15:32 49.1 °F 47.2 °F 29.95 in Calm   17.0 mph 93% 0.00 in 135.00 W/m2
15:37 48.8 °F 46.3 °F 29.95 in SSW 9.0 mph 13.0 mph 91% 0.00 in 102.00 W/m2
15:42 48.8 °F 46.0 °F 29.95 in South 13.0 mph 15.0 mph 90% 0.00 in 76.00 W/m2
15:47 48.8 °F 45.7 °F 29.95 in South 1.0 mph 7.0 mph 89% 0.00 in 84.00 W/m2
15:52 48.9 °F 46.1 °F 29.95 in South 6.0 mph 11.0 mph 90% 0.00 in 70.00 W/m2
15:57 48.8 °F 46.0 °F 29.94 in South 5.0 mph 12.0 mph 90% 0.00 in 60.00 W/m2
16:02 48.8 °F 46.3 °F 29.94 in Calm   8.0 mph 91% 0.00 in 60.00 W/m2
16:07 48.7 °F 46.2 °F 29.94 in Calm   1.0 mph 91% 0.00 in 88.00 W/m2
16:12 48.6 °F 46.1 °F 29.94 in Calm   1.0 mph 91% 0.00 in 93.00 W/m2
16:17 48.5 °F 46.3 °F 29.94 in Calm   8.0 mph 92% 0.00 in 54.00 W/m2
16:22 48.4 °F 46.2 °F 29.94 in Calm     92% 0.00 in 35.00 W/m2
16:27 48.4 °F 46.5 °F 29.94 in South 1.0 mph 1.0 mph 93% 0.00 in 28.00 W/m2
16:28 48.4 °F 46.5 °F 29.94 in SSE 10.0 mph 10.0 mph 93% 0.00 in 28.00 W/m2
16:33 48.3 °F 46.4 °F 29.94 in Calm   10.0 mph 93% 0.00 in 25.00 W/m2
16:38 48.2 °F 46.3 °F 29.94 in SSW 9.0 mph 12.0 mph 93% 0.00 in 23.00 W/m2
16:43 48.1 °F 45.9 °F 29.94 in SSW 6.0 mph 12.0 mph 92% 0.00 in 33.00 W/m2
16:48 48.2 °F 46.0 °F 29.94 in SSW 7.0 mph 9.0 mph 92% 0.00 in 46.00 W/m2
16:53 48.1 °F 45.9 °F 29.94 in SW 2.0 mph 6.0 mph 92% 0.00 in 39.00 W/m2
16:58 48.1 °F 45.6 °F 29.94 in SW 7.0 mph 7.0 mph 91% 0.00 in 25.00 W/m2
17:03 48.1 °F 45.6 °F 29.93 in Calm   1.0 mph 91% 0.00 in 25.00 W/m2
17:08 48.1 °F 45.6 °F 29.93 in SSW 2.0 mph 7.0 mph 91% 0.00 in 18.00 W/m2
17:13 48.1 °F 45.6 °F 29.93 in Calm   8.0 mph 91% 0.00 in 9.00 W/m2
17:18 47.9 °F 45.4 °F 29.93 in South 7.0 mph 9.0 mph 91% 0.00 in 9.00 W/m2
17:23 47.9 °F 45.4 °F 29.93 in Calm     91% 0.00 in 11.00 W/m2
17:28 47.9 °F 45.4 °F 29.93 in Calm     91% 0.00 in 7.00 W/m2
17:33 47.8 °F 45.3 °F 29.92 in Calm     91% 0.00 in 7.00 W/m2
17:38 47.7 °F 45.5 °F 29.91 in Calm     92% 0.00 in 5.00 W/m2
17:43 47.6 °F 45.4 °F 29.91 in Calm     92% 0.00 in 0.00 W/m2
17:48 47.5 °F 45.3 °F 29.91 in Calm     92% 0.00 in 0.00 W/m2
17:53 47.4 °F 45.2 °F 29.92 in Calm     92% 0.00 in 0.00 W/m2
17:58 47.3 °F 45.4 °F 29.91 in Calm     93% 0.00 in 0.00 W/m2
18:03 47.1 °F 45.2 °F 29.91 in Calm     93% 0.00 in 0.00 W/m2
18:08 47.0 °F 45.1 °F 29.91 in Calm     93% 0.00 in 0.00 W/m2
18:13 46.9 °F 45.0 °F 29.91 in Calm     93% 0.00 in 0.00 W/m2
18:18 46.8 °F 44.9 °F 29.91 in Calm     93% 0.00 in 0.00 W/m2
18:23 46.7 °F 44.8 °F 29.90 in Calm     93% 0.00 in 0.00 W/m2
18:28 46.6 °F 44.7 °F 29.90 in Calm     93% 0.00 in 0.00 W/m2
18:33 46.6 °F 44.7 °F 29.90 in Calm     93% 0.00 in 0.00 W/m2
18:38 46.5 °F 44.6 °F 29.91 in Calm     93% 0.00 in 0.00 W/m2
18:43 46.5 °F 44.6 °F 29.90 in Calm     93% 0.00 in 0.00 W/m2
18:48 46.4 °F 44.5 °F 29.91 in Calm     93% 0.00 in 0.00 W/m2
18:53 46.4 °F 44.5 °F 29.91 in Calm     93% 0.00 in 0.00 W/m2
18:58 46.4 °F 44.5 °F 29.91 in Calm     93% 0.00 in 0.00 W/m2
19:03 46.4 °F 44.5 °F 29.91 in Calm     93% 0.00 in 0.00 W/m2
19:08 46.4 °F 44.5 °F 29.91 in Calm     93% 0.00 in 0.00 W/m2
19:13 46.4 °F 44.5 °F 29.91 in Calm     93% 0.00 in 0.00 W/m2
19:19 46.4 °F 44.5 °F 29.91 in Calm     93% 0.00 in 0.00 W/m2
19:24 46.4 °F 44.5 °F 29.90 in Calm     93% 0.00 in 0.00 W/m2
19:29 46.5 °F 44.6 °F 29.90 in Calm     93% 0.00 in 0.00 W/m2
19:34 46.5 °F 44.6 °F 29.90 in Calm     93% 0.00 in 0.00 W/m2
19:39 46.5 °F 44.6 °F 29.90 in Calm     93% 0.00 in 0.00 W/m2
19:44 46.5 °F 44.6 °F 29.90 in Calm     93% 0.00 in 0.00 W/m2
19:49 46.5 °F 44.6 °F 29.90 in Calm     93% 0.00 in 0.00 W/m2
19:54 46.5 °F 44.6 °F 29.89 in Calm     93% 0.00 in 0.00 W/m2
19:59 46.4 °F 44.5 °F 29.89 in Calm     93% 0.00 in 0.00 W/m2
20:04 46.4 °F 44.5 °F 29.89 in Calm     93% 0.00 in 0.00 W/m2
20:09 46.4 °F 44.5 °F 29.89 in Calm     93% 0.00 in 0.00 W/m2
20:14 46.4 °F 44.5 °F 29.89 in Calm     93% 0.00 in 0.00 W/m2
20:19 46.4 °F 44.5 °F 29.88 in Calm     93% 0.00 in 0.00 W/m2
20:24 46.4 °F 44.5 °F 29.88 in Calm     93% 0.00 in 0.00 W/m2
20:29 46.4 °F 44.5 °F 29.88 in Calm     93% 0.00 in 0.00 W/m2
20:34 46.4 °F 44.5 °F 29.88 in Calm     93% 0.00 in 0.00 W/m2
20:39 46.5 °F 44.6 °F 29.88 in Calm   8.0 mph 93% 0.00 in 0.00 W/m2
20:44 46.5 °F 44.6 °F 29.88 in Calm   1.0 mph 93% 0.00 in 0.00 W/m2
20:49 46.5 °F 44.6 °F 29.88 in Calm     93% 0.00 in 0.00 W/m2
20:54 46.5 °F 44.6 °F 29.88 in Calm     93% 0.00 in 0.00 W/m2
20:59 46.5 °F 44.6 °F 29.88 in Calm     93% 0.00 in 0.00 W/m2
21:04 46.4 °F 44.5 °F 29.88 in Calm     93% 0.00 in 0.00 W/m2
21:09 46.4 °F 44.5 °F 29.87 in Calm     93% 0.00 in 0.00 W/m2
21:14 46.4 °F 44.5 °F 29.87 in Calm     93% 0.00 in 0.00 W/m2
21:19 46.4 °F 44.5 °F 29.86 in Calm     93% 0.00 in 0.00 W/m2
21:24 46.4 °F 44.5 °F 29.86 in Calm     93% 0.00 in 0.00 W/m2
21:29 46.4 °F 44.5 °F 29.86 in Calm     93% 0.00 in 0.00 W/m2
21:34 46.3 °F 44.4 °F 29.86 in Calm     93% 0.00 in 0.00 W/m2
21:39 46.2 °F 44.3 °F 29.86 in Calm     93% 0.00 in 0.00 W/m2
21:44 46.1 °F 44.2 °F 29.86 in Calm     93% 0.00 in 0.00 W/m2
21:49 46.0 °F 44.1 °F 29.85 in Calm     93% 0.00 in 0.00 W/m2
21:54 45.9 °F 44.0 °F 29.85 in Calm     93% 0.00 in 0.00 W/m2
22:00 45.9 °F 44.0 °F 29.84 in Calm     93% 0.00 in 0.00 W/m2
22:05 45.8 °F 43.9 °F 29.84 in Calm     93% 0.00 in 0.00 W/m2
22:10 45.9 °F 44.0 °F 29.84 in Calm     93% 0.00 in 0.00 W/m2
22:15 45.8 °F 43.9 °F 29.84 in Calm     93% 0.00 in 0.00 W/m2
22:20 45.9 °F 44.0 °F 29.84 in Calm     93% 0.00 in 0.00 W/m2
22:25 45.9 °F 44.0 °F 29.84 in Calm   4.0 mph 93% 0.00 in 0.00 W/m2
22:30 45.9 °F 44.0 °F 29.84 in Calm     93% 0.00 in 0.00 W/m2
22:35 45.9 °F 44.0 °F 29.84 in Calm     93% 0.00 in 0.00 W/m2
22:40 45.9 °F 44.0 °F 29.84 in Calm     93% 0.00 in 0.00 W/m2
22:45 45.9 °F 44.0 °F 29.84 in Calm     93% 0.00 in 0.00 W/m2
22:50 45.9 °F 44.0 °F 29.83 in Calm     93% 0.00 in 0.00 W/m2
22:55 45.9 °F 44.0 °F 29.83 in Calm     93% 0.00 in 0.00 W/m2
23:00 45.9 °F 44.0 °F 29.83 in Calm     93% 0.00 in 0.00 W/m2
23:05 45.8 °F 43.9 °F 29.83 in Calm     93% 0.00 in 0.00 W/m2
23:10 45.8 °F 43.9 °F 29.83 in Calm     93% 0.00 in 0.00 W/m2
23:15 45.8 °F 43.9 °F 29.83 in Calm     93% 0.00 in 0.00 W/m2
23:20 45.7 °F 43.8 °F 29.82 in SE 4.0 mph 5.0 mph 93% 0.00 in 0.00 W/m2
23:25 45.7 °F 43.8 °F 29.81 in SE 2.0 mph 6.0 mph 93% 0.00 in 0.00 W/m2
23:30 45.6 °F 43.7 °F 29.81 in Calm   1.0 mph 93% 0.00 in 0.00 W/m2
23:35 45.6 °F 43.7 °F 29.80 in Calm     93% 0.00 in 0.00 W/m2
23:40 45.6 °F 43.7 °F 29.80 in Calm     93% 0.00 in 0.00 W/m2
23:45 45.6 °F 43.7 °F 29.80 in Calm     93% 0.00 in 0.00 W/m2
23:50 45.7 °F 43.8 °F 29.80 in Calm     93% 0.00 in 0.00 W/m2
23:55 45.7 °F 43.8 °F 29.80 in Calm     93% 0.00 in 0.00 W/m2
Foresthill Weather
 WU-history PHP script courtesy of   Juneau County Weather.
powered by Cumulus v1.9.3 (1059)
Ambient Weather VWS v14.00
Top Contact Website Map Copyright © 2007 - 2018 Foresthillweather.com Never base important decisions on this or any weather information obtained from the Internet